sensor_id;sensor_type;location;lat;lon;timestamp;P1;durP1;ratioP1;P2;durP2;ratioP2
74935;SDS011;63501;55.570;37.488;2023-07-31T00:00:06;9.13;;;4.00;;
74935;SDS011;63501;55.570;37.488;2023-07-31T00:02:36;7.40;;;4.30;;
74935;SDS011;63501;55.570;37.488;2023-07-31T00:05:03;10.70;;;4.57;;
74935;SDS011;63501;55.570;37.488;2023-07-31T00:07:31;10.25;;;4.13;;
74935;SDS011;63501;55.570;37.488;2023-07-31T00:09:59;9.82;;;4.15;;
74935;SDS011;63501;55.570;37.488;2023-07-31T00:12:26;9.00;;;3.25;;
74935;SDS011;63501;55.570;37.488;2023-07-31T00:14:53;6.45;;;3.90;;
74935;SDS011;63501;55.570;37.488;2023-07-31T00:17:20;7.65;;;4.00;;
74935;SDS011;63501;55.570;37.488;2023-07-31T00:19:48;7.85;;;4.32;;
74935;SDS011;63501;55.570;37.488;2023-07-31T00:22:16;6.13;;;4.03;;
74935;SDS011;63501;55.570;37.488;2023-07-31T00:24:43;9.20;;;3.88;;
74935;SDS011;63501;55.570;37.488;2023-07-31T00:27:10;11.98;;;4.15;;
74935;SDS011;63501;55.570;37.488;2023-07-31T00:29:37;5.55;;;3.70;;
74935;SDS011;63501;55.570;37.488;2023-07-31T00:32:05;7.88;;;4.20;;
74935;SDS011;63501;55.570;37.488;2023-07-31T00:34:33;8.38;;;4.18;;
74935;SDS011;63501;55.570;37.488;2023-07-31T00:37:01;8.05;;;3.88;;
74935;SDS011;63501;55.570;37.488;2023-07-31T00:39:29;6.38;;;3.75;;
74935;SDS011;63501;55.570;37.488;2023-07-31T00:41:57;6.50;;;3.67;;
74935;SDS011;63501;55.570;37.488;2023-07-31T00:44:24;6.80;;;3.55;;
74935;SDS011;63501;55.570;37.488;2023-07-31T00:46:51;6.57;;;3.50;;
74935;SDS011;63501;55.570;37.488;2023-07-31T00:49:19;6.68;;;3.85;;
74935;SDS011;63501;55.570;37.488;2023-07-31T00:51:47;7.15;;;3.53;;
74935;SDS011;63501;55.570;37.488;2023-07-31T00:54:15;7.00;;;3.90;;
74935;SDS011;63501;55.570;37.488;2023-07-31T00:56:43;7.53;;;4.05;;
74935;SDS011;63501;55.570;37.488;2023-07-31T00:59:13;7.78;;;3.60;;
74935;SDS011;63501;55.570;37.488;2023-07-31T01:01:41;6.38;;;4.38;;
74935;SDS011;63501;55.570;37.488;2023-07-31T01:04:08;8.73;;;6.18;;
74935;SDS011;63501;55.570;37.488;2023-07-31T01:06:36;7.80;;;5.10;;
74935;SDS011;63501;55.570;37.488;2023-07-31T01:09:10;8.15;;;5.32;;
74935;SDS011;63501;55.570;37.488;2023-07-31T01:11:46;15.07;;;12.13;;
74935;SDS011;63501;55.570;37.488;2023-07-31T01:14:18;23.25;;;17.35;;
74935;SDS011;63501;55.570;37.488;2023-07-31T01:16:45;23.83;;;18.80;;
74935;SDS011;63501;55.570;37.488;2023-07-31T01:19:12;15.93;;;11.75;;
74935;SDS011;63501;55.570;37.488;2023-07-31T01:21:48;24.58;;;20.33;;
74935;SDS011;63501;55.570;37.488;2023-07-31T01:24:36;23.52;;;15.93;;
74935;SDS011;63501;55.570;37.488;2023-07-31T01:27:17;21.48;;;15.02;;
74935;SDS011;63501;55.570;37.488;2023-07-31T01:29:56;19.67;;;13.32;;
74935;SDS011;63501;55.570;37.488;2023-07-31T01:32:35;14.93;;;10.18;;
74935;SDS011;63501;55.570;37.488;2023-07-31T01:35:06;16.73;;;9.27;;
74935;SDS011;63501;55.570;37.488;2023-07-31T01:37:33;13.50;;;9.27;;
74935;SDS011;63501;55.570;37.488;2023-07-31T01:40:01;13.32;;;8.55;;
74935;SDS011;63501;55.570;37.488;2023-07-31T01:42:32;14.02;;;9.10;;
74935;SDS011;63501;55.570;37.488;2023-07-31T01:44:59;11.38;;;8.27;;
74935;SDS011;63501;55.570;37.488;2023-07-31T01:47:26;13.23;;;8.77;;
74935;SDS011;63501;55.570;37.488;2023-07-31T01:49:53;11.95;;;7.85;;
74935;SDS011;63501;55.570;37.488;2023-07-31T01:52:20;12.25;;;8.00;;
74935;SDS011;63501;55.570;37.488;2023-07-31T01:54:47;10.98;;;7.90;;
74935;SDS011;63501;55.570;37.488;2023-07-31T01:57:14;11.57;;;6.28;;
74935;SDS011;63501;55.570;37.488;2023-07-31T01:59:43;8.73;;;6.40;;
74935;SDS011;63501;55.570;37.488;2023-07-31T02:02:10;9.52;;;6.18;;
74935;SDS011;63501;55.570;37.488;2023-07-31T02:04:37;10.63;;;6.68;;
74935;SDS011;63501;55.570;37.488;2023-07-31T02:07:05;7.72;;;4.28;;
74935;SDS011;63501;55.570;37.488;2023-07-31T02:09:32;11.48;;;6.53;;
74935;SDS011;63501;55.570;37.488;2023-07-31T02:11:59;8.68;;;5.40;;
74935;SDS011;63501;55.570;37.488;2023-07-31T02:14:26;8.88;;;4.95;;
74935;SDS011;63501;55.570;37.488;2023-07-31T02:16:55;7.20;;;4.90;;
74935;SDS011;63501;55.570;37.488;2023-07-31T02:19:22;6.55;;;5.82;;
74935;SDS011;63501;55.570;37.488;2023-07-31T02:21:49;11.93;;;5.93;;
74935;SDS011;63501;55.570;37.488;2023-07-31T02:24:16;7.65;;;4.60;;
74935;SDS011;63501;55.570;37.488;2023-07-31T02:26:43;8.38;;;5.10;;
74935;SDS011;63501;55.570;37.488;2023-07-31T02:29:11;6.05;;;4.15;;
74935;SDS011;63501;55.570;37.488;2023-07-31T02:31:38;11.02;;;5.13;;
74935;SDS011;63501;55.570;37.488;2023-07-31T02:34:06;8.88;;;4.75;;
74935;SDS011;63501;55.570;37.488;2023-07-31T02:36:33;6.85;;;4.22;;
74935;SDS011;63501;55.570;37.488;2023-07-31T02:39:00;8.30;;;4.55;;
74935;SDS011;63501;55.570;37.488;2023-07-31T02:41:27;7.22;;;4.30;;
74935;SDS011;63501;55.570;37.488;2023-07-31T02:43:54;7.63;;;3.97;;
74935;SDS011;63501;55.570;37.488;2023-07-31T02:46:21;8.43;;;4.20;;
74935;SDS011;63501;55.570;37.488;2023-07-31T02:48:50;8.63;;;4.10;;
74935;SDS011;63501;55.570;37.488;2023-07-31T02:51:18;8.80;;;4.22;;
74935;SDS011;63501;55.570;37.488;2023-07-31T02:53:46;6.32;;;3.85;;
74935;SDS011;63501;55.570;37.488;2023-07-31T02:56:13;6.18;;;4.05;;
74935;SDS011;63501;55.570;37.488;2023-07-31T02:58:41;7.43;;;4.10;;
74935;SDS011;63501;55.570;37.488;2023-07-31T03:01:08;7.10;;;4.75;;
74935;SDS011;63501;55.570;37.488;2023-07-31T03:03:35;8.93;;;4.20;;
74935;SDS011;63501;55.570;37.488;2023-07-31T03:06:02;6.28;;;3.72;;
74935;SDS011;63501;55.570;37.488;2023-07-31T03:08:31;7.10;;;3.72;;
74935;SDS011;63501;55.570;37.488;2023-07-31T03:10:58;6.75;;;4.10;;
74935;SDS011;63501;55.570;37.488;2023-07-31T03:13:25;6.97;;;3.78;;
74935;SDS011;63501;55.570;37.488;2023-07-31T03:15:52;7.88;;;4.47;;
74935;SDS011;63501;55.570;37.488;2023-07-31T03:18:19;8.15;;;3.70;;
74935;SDS011;63501;55.570;37.488;2023-07-31T03:20:47;8.32;;;4.15;;
74935;SDS011;63501;55.570;37.488;2023-07-31T03:23:14;7.30;;;4.10;;
74935;SDS011;63501;55.570;37.488;2023-07-31T03:25:52;5.22;;;3.60;;
74935;SDS011;63501;55.570;37.488;2023-07-31T03:28:22;8.40;;;4.05;;
74935;SDS011;63501;55.570;37.488;2023-07-31T03:30:49;7.72;;;4.88;;
74935;SDS011;63501;55.570;37.488;2023-07-31T03:35:44;6.15;;;4.10;;
74935;SDS011;63501;55.570;37.488;2023-07-31T03:38:11;8.65;;;4.25;;
74935;SDS011;63501;55.570;37.488;2023-07-31T03:40:38;7.55;;;4.05;;
74935;SDS011;63501;55.570;37.488;2023-07-31T03:43:07;6.03;;;4.13;;
74935;SDS011;63501;55.570;37.488;2023-07-31T03:45:34;6.40;;;3.92;;
74935;SDS011;63501;55.570;37.488;2023-07-31T03:48:02;7.20;;;3.15;;
74935;SDS011;63501;55.570;37.488;2023-07-31T03:50:30;4.85;;;3.80;;
74935;SDS011;63501;55.570;37.488;2023-07-31T03:52:57;7.85;;;3.90;;
74935;SDS011;63501;55.570;37.488;2023-07-31T03:55:24;6.75;;;4.00;;
74935;SDS011;63501;55.570;37.488;2023-07-31T03:57:51;9.77;;;3.75;;
74935;SDS011;63501;55.570;37.488;2023-07-31T04:00:20;5.30;;;3.45;;
74935;SDS011;63501;55.570;37.488;2023-07-31T04:02:48;7.28;;;3.90;;
74935;SDS011;63501;55.570;37.488;2023-07-31T04:05:15;7.85;;;4.35;;
74935;SDS011;63501;55.570;37.488;2023-07-31T04:07:42;8.55;;;4.20;;
74935;SDS011;63501;55.570;37.488;2023-07-31T04:10:09;6.97;;;3.72;;
74935;SDS011;63501;55.570;37.488;2023-07-31T04:12:36;7.82;;;4.00;;
74935;SDS011;63501;55.570;37.488;2023-07-31T04:15:04;5.63;;;3.60;;
74935;SDS011;63501;55.570;37.488;2023-07-31T04:17:33;5.53;;;3.88;;
74935;SDS011;63501;55.570;37.488;2023-07-31T04:20:01;5.72;;;3.55;;
74935;SDS011;63501;55.570;37.488;2023-07-31T04:22:29;6.10;;;3.65;;
74935;SDS011;63501;55.570;37.488;2023-07-31T04:24:57;7.80;;;3.30;;
74935;SDS011;63501;55.570;37.488;2023-07-31T04:27:24;8.48;;;3.97;;
74935;SDS011;63501;55.570;37.488;2023-07-31T04:29:51;5.65;;;3.55;;
74935;SDS011;63501;55.570;37.488;2023-07-31T04:32:18;5.28;;;3.60;;
74935;SDS011;63501;55.570;37.488;2023-07-31T04:34:47;4.53;;;3.15;;
74935;SDS011;63501;55.570;37.488;2023-07-31T04:37:14;7.07;;;3.75;;
74935;SDS011;63501;55.570;37.488;2023-07-31T04:39:41;5.13;;;4.03;;
74935;SDS011;63501;55.570;37.488;2023-07-31T04:42:08;5.43;;;3.30;;
74935;SDS011;63501;55.570;37.488;2023-07-31T04:44:35;6.55;;;3.63;;
74935;SDS011;63501;55.570;37.488;2023-07-31T04:47:03;7.80;;;3.70;;
74935;SDS011;63501;55.570;37.488;2023-07-31T04:49:31;7.28;;;3.55;;
74935;SDS011;63501;55.570;37.488;2023-07-31T04:52:00;5.70;;;3.38;;
74935;SDS011;63501;55.570;37.488;2023-07-31T04:54:27;9.73;;;3.13;;
74935;SDS011;63501;55.570;37.488;2023-07-31T04:56:54;5.10;;;3.30;;
74935;SDS011;63501;55.570;37.488;2023-07-31T04:59:21;6.70;;;3.05;;
74935;SDS011;63501;55.570;37.488;2023-07-31T05:01:48;5.18;;;3.30;;
74935;SDS011;63501;55.570;37.488;2023-07-31T05:04:16;8.43;;;3.50;;
74935;SDS011;63501;55.570;37.488;2023-07-31T05:06:43;3.67;;;2.95;;
74935;SDS011;63501;55.570;37.488;2023-07-31T05:09:11;8.73;;;3.70;;
74935;SDS011;63501;55.570;37.488;2023-07-31T05:11:38;5.35;;;3.15;;
74935;SDS011;63501;55.570;37.488;2023-07-31T05:14:08;6.07;;;3.20;;
74935;SDS011;63501;55.570;37.488;2023-07-31T05:16:35;5.55;;;2.40;;
74935;SDS011;63501;55.570;37.488;2023-07-31T05:19:02;5.95;;;3.55;;
74935;SDS011;63501;55.570;37.488;2023-07-31T05:21:29;4.45;;;3.22;;
74935;SDS011;63501;55.570;37.488;2023-07-31T05:23:56;7.00;;;3.45;;
74935;SDS011;63501;55.570;37.488;2023-07-31T05:26:25;3.75;;;2.97;;
74935;SDS011;63501;55.570;37.488;2023-07-31T05:28:52;3.88;;;2.70;;
74935;SDS011;63501;55.570;37.488;2023-07-31T05:31:19;5.47;;;2.72;;
74935;SDS011;63501;55.570;37.488;2023-07-31T05:33:47;4.75;;;3.08;;
74935;SDS011;63501;55.570;37.488;2023-07-31T05:36:17;4.57;;;2.80;;
74935;SDS011;63501;55.570;37.488;2023-07-31T05:38:44;3.67;;;2.35;;
74935;SDS011;63501;55.570;37.488;2023-07-31T05:41:12;5.30;;;2.72;;
74935;SDS011;63501;55.570;37.488;2023-07-31T05:43:40;4.57;;;2.63;;
74935;SDS011;63501;55.570;37.488;2023-07-31T05:46:08;2.55;;;2.03;;
74935;SDS011;63501;55.570;37.488;2023-07-31T05:48:37;4.63;;;3.00;;
74935;SDS011;63501;55.570;37.488;2023-07-31T05:51:04;6.63;;;2.75;;
74935;SDS011;63501;55.570;37.488;2023-07-31T05:53:32;5.88;;;2.53;;
74935;SDS011;63501;55.570;37.488;2023-07-31T05:58:26;4.10;;;2.45;;
74935;SDS011;63501;55.570;37.488;2023-07-31T06:00:55;3.55;;;2.03;;
74935;SDS011;63501;55.570;37.488;2023-07-31T06:03:22;2.67;;;2.03;;
74935;SDS011;63501;55.570;37.488;2023-07-31T06:05:49;4.05;;;2.30;;
74935;SDS011;63501;55.570;37.488;2023-07-31T06:08:16;2.50;;;1.92;;
74935;SDS011;63501;55.570;37.488;2023-07-31T06:10:43;4.72;;;2.50;;
74935;SDS011;63501;55.570;37.488;2023-07-31T06:13:10;4.13;;;2.17;;
74935;SDS011;63501;55.570;37.488;2023-07-31T06:15:38;5.18;;;2.40;;
74935;SDS011;63501;55.570;37.488;2023-07-31T06:18:06;3.13;;;2.20;;
74935;SDS011;63501;55.570;37.488;2023-07-31T06:20:34;6.15;;;2.47;;
74935;SDS011;63501;55.570;37.488;2023-07-31T06:23:01;4.28;;;2.22;;
74935;SDS011;63501;55.570;37.488;2023-07-31T06:25:29;2.42;;;1.90;;
74935;SDS011;63501;55.570;37.488;2023-07-31T06:27:56;2.53;;;1.77;;
74935;SDS011;63501;55.570;37.488;2023-07-31T06:30:23;1.88;;;0.98;;
74935;SDS011;63501;55.570;37.488;2023-07-31T06:32:50;2.05;;;1.70;;
74935;SDS011;63501;55.570;37.488;2023-07-31T06:35:19;1.90;;;1.30;;
74935;SDS011;63501;55.570;37.488;2023-07-31T06:37:46;4.65;;;1.38;;
74935;SDS011;63501;55.570;37.488;2023-07-31T06:40:13;1.48;;;1.38;;
74935;SDS011;63501;55.570;37.488;2023-07-31T06:42:40;3.47;;;1.30;;
74935;SDS011;63501;55.570;37.488;2023-07-31T06:45:08;5.05;;;1.70;;
74935;SDS011;63501;55.570;37.488;2023-07-31T06:47:35;2.63;;;1.60;;
74935;SDS011;63501;55.570;37.488;2023-07-31T06:50:03;2.85;;;1.30;;
74935;SDS011;63501;55.570;37.488;2023-07-31T06:52:32;2.67;;;1.30;;
74935;SDS011;63501;55.570;37.488;2023-07-31T06:55:03;2.67;;;1.60;;
74935;SDS011;63501;55.570;37.488;2023-07-31T06:57:43;3.78;;;1.45;;
74935;SDS011;63501;55.570;37.488;2023-07-31T07:00:10;1.30;;;1.00;;
74935;SDS011;63501;55.570;37.488;2023-07-31T07:02:38;3.45;;;1.60;;
74935;SDS011;63501;55.570;37.488;2023-07-31T07:05:06;2.63;;;1.48;;
74935;SDS011;63501;55.570;37.488;2023-07-31T07:07:35;4.80;;;1.73;;
74935;SDS011;63501;55.570;37.488;2023-07-31T07:10:03;2.08;;;1.38;;
74935;SDS011;63501;55.570;37.488;2023-07-31T07:12:31;2.35;;;1.50;;
74935;SDS011;63501;55.570;37.488;2023-07-31T07:15:00;2.65;;;1.35;;
74935;SDS011;63501;55.570;37.488;2023-07-31T07:17:32;2.10;;;1.48;;
74935;SDS011;63501;55.570;37.488;2023-07-31T07:19:59;1.75;;;1.00;;
74935;SDS011;63501;55.570;37.488;2023-07-31T07:22:31;1.35;;;0.95;;
74935;SDS011;63501;55.570;37.488;2023-07-31T07:24:59;2.17;;;1.20;;
74935;SDS011;63501;55.570;37.488;2023-07-31T07:27:29;3.40;;;1.40;;
74935;SDS011;63501;55.570;37.488;2023-07-31T07:29:57;1.55;;;1.10;;
74935;SDS011;63501;55.570;37.488;2023-07-31T07:32:24;2.65;;;1.50;;
74935;SDS011;63501;55.570;37.488;2023-07-31T07:34:51;2.00;;;1.45;;
74935;SDS011;63501;55.570;37.488;2023-07-31T07:37:19;2.67;;;1.40;;
74935;SDS011;63501;55.570;37.488;2023-07-31T07:39:46;0.95;;;0.88;;
74935;SDS011;63501;55.570;37.488;2023-07-31T07:42:14;0.73;;;0.73;;
74935;SDS011;63501;55.570;37.488;2023-07-31T07:44:41;0.85;;;0.75;;
74935;SDS011;63501;55.570;37.488;2023-07-31T07:47:09;2.53;;;1.40;;
74935;SDS011;63501;55.570;37.488;2023-07-31T07:49:36;12.20;;;2.08;;
74935;SDS011;63501;55.570;37.488;2023-07-31T07:52:03;1.92;;;1.00;;
74935;SDS011;63501;55.570;37.488;2023-07-31T07:54:31;1.30;;;1.10;;
74935;SDS011;63501;55.570;37.488;2023-07-31T07:56:58;1.98;;;1.00;;
74935;SDS011;63501;55.570;37.488;2023-07-31T07:59:27;1.27;;;1.17;;
74935;SDS011;63501;55.570;37.488;2023-07-31T08:01:54;2.10;;;1.50;;
74935;SDS011;63501;55.570;37.488;2023-07-31T08:04:22;2.55;;;1.27;;
74935;SDS011;63501;55.570;37.488;2023-07-31T08:06:49;1.20;;;0.90;;
74935;SDS011;63501;55.570;37.488;2023-07-31T08:09:17;1.45;;;1.10;;
74935;SDS011;63501;55.570;37.488;2023-07-31T08:11:44;1.17;;;0.75;;
74935;SDS011;63501;55.570;37.488;2023-07-31T08:14:11;1.67;;;1.20;;
74935;SDS011;63501;55.570;37.488;2023-07-31T08:16:39;3.50;;;2.15;;
74935;SDS011;63501;55.570;37.488;2023-07-31T08:19:06;2.42;;;1.20;;
74935;SDS011;63501;55.570;37.488;2023-07-31T08:21:33;1.55;;;1.23;;
74935;SDS011;63501;55.570;37.488;2023-07-31T08:24:01;1.88;;;1.23;;
74935;SDS011;63501;55.570;37.488;2023-07-31T08:26:28;1.40;;;1.02;;
74935;SDS011;63501;55.570;37.488;2023-07-31T08:28:55;1.83;;;1.23;;
74935;SDS011;63501;55.570;37.488;2023-07-31T08:31:22;1.17;;;1.00;;
74935;SDS011;63501;55.570;37.488;2023-07-31T08:33:51;4.00;;;1.40;;
74935;SDS011;63501;55.570;37.488;2023-07-31T08:36:18;2.20;;;1.30;;
74935;SDS011;63501;55.570;37.488;2023-07-31T08:38:45;3.45;;;1.42;;
74935;SDS011;63501;55.570;37.488;2023-07-31T08:41:12;2.10;;;1.60;;
74935;SDS011;63501;55.570;37.488;2023-07-31T08:43:42;1.63;;;1.40;;
74935;SDS011;63501;55.570;37.488;2023-07-31T08:46:10;2.15;;;1.15;;
74935;SDS011;63501;55.570;37.488;2023-07-31T08:48:39;2.47;;;1.42;;
74935;SDS011;63501;55.570;37.488;2023-07-31T08:51:10;2.47;;;1.40;;
74935;SDS011;63501;55.570;37.488;2023-07-31T08:53:38;2.50;;;0.70;;
74935;SDS011;63501;55.570;37.488;2023-07-31T08:56:05;1.67;;;1.20;;
74935;SDS011;63501;55.570;37.488;2023-07-31T08:58:32;2.47;;;1.73;;
74935;SDS011;63501;55.570;37.488;2023-07-31T09:01:01;1.98;;;1.70;;
74935;SDS011;63501;55.570;37.488;2023-07-31T09:03:32;1.08;;;0.95;;
74935;SDS011;63501;55.570;37.488;2023-07-31T09:06:01;2.10;;;1.52;;
74935;SDS011;63501;55.570;37.488;2023-07-31T09:08:33;1.02;;;0.93;;
74935;SDS011;63501;55.570;37.488;2023-07-31T09:11:01;2.03;;;1.48;;
74935;SDS011;63501;55.570;37.488;2023-07-31T09:13:30;2.33;;;1.23;;
74935;SDS011;63501;55.570;37.488;2023-07-31T09:15:58;1.13;;;0.77;;
74935;SDS011;63501;55.570;37.488;2023-07-31T09:21:01;1.48;;;1.38;;
74935;SDS011;63501;55.570;37.488;2023-07-31T09:23:41;1.88;;;1.20;;
74935;SDS011;63501;55.570;37.488;2023-07-31T09:26:09;1.77;;;1.52;;
74935;SDS011;63501;55.570;37.488;2023-07-31T09:28:37;3.65;;;1.40;;
74935;SDS011;63501;55.570;37.488;2023-07-31T09:33:30;2.55;;;1.67;;
74935;SDS011;63501;55.570;37.488;2023-07-31T09:35:58;2.95;;;1.33;;
74935;SDS011;63501;55.570;37.488;2023-07-31T09:38:31;2.83;;;1.60;;
74935;SDS011;63501;55.570;37.488;2023-07-31T09:40:59;2.60;;;1.50;;
74935;SDS011;63501;55.570;37.488;2023-07-31T09:43:27;2.15;;;1.73;;
74935;SDS011;63501;55.570;37.488;2023-07-31T09:45:55;2.47;;;1.60;;
74935;SDS011;63501;55.570;37.488;2023-07-31T09:48:23;2.60;;;1.60;;
74935;SDS011;63501;55.570;37.488;2023-07-31T09:50:53;1.65;;;1.52;;
74935;SDS011;63501;55.570;37.488;2023-07-31T09:53:21;3.38;;;1.77;;
74935;SDS011;63501;55.570;37.488;2023-07-31T09:55:56;1.75;;;1.65;;
74935;SDS011;63501;55.570;37.488;2023-07-31T09:58:26;1.75;;;1.60;;
74935;SDS011;63501;55.570;37.488;2023-07-31T10:00:57;1.48;;;1.25;;
74935;SDS011;63501;55.570;37.488;2023-07-31T10:03:25;1.80;;;1.70;;
74935;SDS011;63501;55.570;37.488;2023-07-31T10:05:53;1.60;;;1.50;;
74935;SDS011;63501;55.570;37.488;2023-07-31T10:08:24;1.63;;;1.52;;
74935;SDS011;63501;55.570;37.488;2023-07-31T10:10:57;2.65;;;1.80;;
74935;SDS011;63501;55.570;37.488;2023-07-31T10:13:27;2.90;;;1.85;;
74935;SDS011;63501;55.570;37.488;2023-07-31T10:15:57;1.80;;;1.67;;
74935;SDS011;63501;55.570;37.488;2023-07-31T10:18:25;1.70;;;1.40;;
74935;SDS011;63501;55.570;37.488;2023-07-31T10:20:53;2.17;;;1.77;;
74935;SDS011;63501;55.570;37.488;2023-07-31T10:23:21;2.45;;;1.48;;
74935;SDS011;63501;55.570;37.488;2023-07-31T10:25:49;1.92;;;1.63;;
74935;SDS011;63501;55.570;37.488;2023-07-31T10:28:18;2.13;;;1.50;;
74935;SDS011;63501;55.570;37.488;2023-07-31T10:30:47;2.25;;;0.93;;
74935;SDS011;63501;55.570;37.488;2023-07-31T10:33:20;3.75;;;1.73;;
74935;SDS011;63501;55.570;37.488;2023-07-31T10:35:48;2.33;;;1.67;;
74935;SDS011;63501;55.570;37.488;2023-07-31T10:38:18;2.05;;;1.38;;
74935;SDS011;63501;55.570;37.488;2023-07-31T10:40:46;3.03;;;1.80;;
74935;SDS011;63501;55.570;37.488;2023-07-31T10:43:23;1.20;;;1.10;;
74935;SDS011;63501;55.570;37.488;2023-07-31T10:45:52;1.88;;;1.25;;
74935;SDS011;63501;55.570;37.488;2023-07-31T10:48:20;1.10;;;1.05;;
74935;SDS011;63501;55.570;37.488;2023-07-31T10:50:48;1.60;;;1.15;;
74935;SDS011;63501;55.570;37.488;2023-07-31T10:53:23;1.60;;;1.40;;
74935;SDS011;63501;55.570;37.488;2023-07-31T10:55:51;4.07;;;1.60;;
74935;SDS011;63501;55.570;37.488;2023-07-31T10:58:18;2.20;;;1.77;;
74935;SDS011;63501;55.570;37.488;2023-07-31T11:00:47;2.50;;;1.90;;
74935;SDS011;63501;55.570;37.488;2023-07-31T11:03:16;2.10;;;1.90;;
74935;SDS011;63501;55.570;37.488;2023-07-31T11:05:50;1.90;;;1.50;;
74935;SDS011;63501;55.570;37.488;2023-07-31T11:08:19;2.50;;;1.60;;
74935;SDS011;63501;55.570;37.488;2023-07-31T11:10:49;2.35;;;1.27;;
74935;SDS011;63501;55.570;37.488;2023-07-31T11:13:18;1.55;;;1.45;;
74935;SDS011;63501;55.570;37.488;2023-07-31T11:15:45;2.83;;;1.52;;
74935;SDS011;63501;55.570;37.488;2023-07-31T11:18:12;1.67;;;1.30;;
74935;SDS011;63501;55.570;37.488;2023-07-31T11:20:42;1.45;;;1.35;;
74935;SDS011;63501;55.570;37.488;2023-07-31T11:23:09;1.88;;;0.80;;
74935;SDS011;63501;55.570;37.488;2023-07-31T11:25:37;2.10;;;1.52;;
74935;SDS011;63501;55.570;37.488;2023-07-31T11:28:08;1.50;;;1.40;;
74935;SDS011;63501;55.570;37.488;2023-07-31T11:30:36;3.03;;;1.33;;
74935;SDS011;63501;55.570;37.488;2023-07-31T11:33:05;1.55;;;1.40;;
74935;SDS011;63501;55.570;37.488;2023-07-31T11:35:33;1.48;;;1.10;;
74935;SDS011;63501;55.570;37.488;2023-07-31T11:38:03;1.33;;;1.23;;
74935;SDS011;63501;55.570;37.488;2023-07-31T11:40:30;1.52;;;1.23;;
74935;SDS011;63501;55.570;37.488;2023-07-31T11:45:25;2.00;;;1.80;;
74935;SDS011;63501;55.570;37.488;2023-07-31T11:47:54;1.92;;;1.40;;
74935;SDS011;63501;55.570;37.488;2023-07-31T11:50:23;2.67;;;1.38;;
74935;SDS011;63501;55.570;37.488;2023-07-31T11:52:52;1.98;;;1.30;;
74935;SDS011;63501;55.570;37.488;2023-07-31T11:55:25;2.92;;;1.42;;
74935;SDS011;63501;55.570;37.488;2023-07-31T11:57:52;2.85;;;1.85;;
74935;SDS011;63501;55.570;37.488;2023-07-31T12:00:23;2.20;;;2.00;;
74935;SDS011;63501;55.570;37.488;2023-07-31T12:02:52;1.98;;;1.38;;
74935;SDS011;63501;55.570;37.488;2023-07-31T12:05:20;4.38;;;1.85;;
74935;SDS011;63501;55.570;37.488;2023-07-31T12:07:49;2.47;;;1.90;;
74935;SDS011;63501;55.570;37.488;2023-07-31T12:10:25;1.20;;;1.10;;
74935;SDS011;63501;55.570;37.488;2023-07-31T12:13:00;1.17;;;1.00;;
74935;SDS011;63501;55.570;37.488;2023-07-31T12:15:33;1.40;;;1.20;;
74935;SDS011;63501;55.570;37.488;2023-07-31T12:18:03;1.95;;;1.48;;
74935;SDS011;63501;55.570;37.488;2023-07-31T12:20:32;3.80;;;2.00;;
74935;SDS011;63501;55.570;37.488;2023-07-31T12:22:59;2.03;;;1.08;;
74935;SDS011;63501;55.570;37.488;2023-07-31T12:25:34;1.45;;;1.20;;
74935;SDS011;63501;55.570;37.488;2023-07-31T12:28:05;1.73;;;1.63;;
74935;SDS011;63501;55.570;37.488;2023-07-31T12:30:37;3.13;;;1.77;;
74935;SDS011;63501;55.570;37.488;2023-07-31T12:33:06;3.05;;;1.30;;
74935;SDS011;63501;55.570;37.488;2023-07-31T12:35:40;1.90;;;0.90;;
74935;SDS011;63501;55.570;37.488;2023-07-31T12:38:08;2.42;;;2.05;;
74935;SDS011;63501;55.570;37.488;2023-07-31T12:40:37;2.20;;;1.80;;
74935;SDS011;63501;55.570;37.488;2023-07-31T12:43:05;2.05;;;1.60;;
74935;SDS011;63501;55.570;37.488;2023-07-31T12:45:33;3.42;;;1.38;;
74935;SDS011;63501;55.570;37.488;2023-07-31T12:48:01;2.38;;;1.92;;
74935;SDS011;63501;55.570;37.488;2023-07-31T12:50:28;1.88;;;1.77;;
74935;SDS011;63501;55.570;37.488;2023-07-31T12:52:55;3.30;;;1.83;;
74935;SDS011;63501;55.570;37.488;2023-07-31T12:55:23;2.03;;;1.50;;
74935;SDS011;63501;55.570;37.488;2023-07-31T12:57:52;3.00;;;1.92;;
74935;SDS011;63501;55.570;37.488;2023-07-31T13:00:19;2.63;;;2.08;;
74935;SDS011;63501;55.570;37.488;2023-07-31T13:02:46;3.42;;;1.70;;
74935;SDS011;63501;55.570;37.488;2023-07-31T13:05:13;2.53;;;1.48;;
74935;SDS011;63501;55.570;37.488;2023-07-31T13:07:41;1.92;;;1.40;;
74935;SDS011;63501;55.570;37.488;2023-07-31T13:10:08;2.85;;;1.92;;
74935;SDS011;63501;55.570;37.488;2023-07-31T13:12:35;1.90;;;1.80;;
74935;SDS011;63501;55.570;37.488;2023-07-31T13:15:05;2.30;;;2.10;;
74935;SDS011;63501;55.570;37.488;2023-07-31T13:17:33;1.58;;;1.48;;
74935;SDS011;63501;55.570;37.488;2023-07-31T13:20:00;2.95;;;2.03;;
74935;SDS011;63501;55.570;37.488;2023-07-31T13:22:31;1.77;;;1.67;;
74935;SDS011;63501;55.570;37.488;2023-07-31T13:24:59;1.20;;;1.10;;
74935;SDS011;63501;55.570;37.488;2023-07-31T13:27:26;2.28;;;2.08;;
74935;SDS011;63501;55.570;37.488;2023-07-31T13:29:53;2.22;;;1.50;;
74935;SDS011;63501;55.570;37.488;2023-07-31T13:32:21;1.83;;;1.73;;
74935;SDS011;63501;55.570;37.488;2023-07-31T13:34:49;1.13;;;1.02;;
74935;SDS011;63501;55.570;37.488;2023-07-31T13:37:16;0.98;;;0.98;;
74935;SDS011;63501;55.570;37.488;2023-07-31T13:42:10;1.42;;;1.20;;
74935;SDS011;63501;55.570;37.488;2023-07-31T13:44:37;2.28;;;1.65;;
74935;SDS011;63501;55.570;37.488;2023-07-31T13:47:05;2.05;;;1.42;;
74935;SDS011;63501;55.570;37.488;2023-07-31T13:49:34;1.38;;;1.27;;
74935;SDS011;63501;55.570;37.488;2023-07-31T13:52:04;1.70;;;1.60;;
74935;SDS011;63501;55.570;37.488;2023-07-31T13:54:32;2.05;;;1.70;;
74935;SDS011;63501;55.570;37.488;2023-07-31T13:59:26;1.27;;;1.05;;
74935;SDS011;63501;55.570;37.488;2023-07-31T14:01:53;2.22;;;1.48;;
74935;SDS011;63501;55.570;37.488;2023-07-31T14:04:21;1.30;;;0.98;;
74935;SDS011;63501;55.570;37.488;2023-07-31T14:06:49;1.88;;;1.55;;
74935;SDS011;63501;55.570;37.488;2023-07-31T14:09:16;1.00;;;0.75;;
74935;SDS011;63501;55.570;37.488;2023-07-31T14:14:10;1.33;;;0.75;;
74935;SDS011;63501;55.570;37.488;2023-07-31T14:16:39;2.25;;;1.15;;
74935;SDS011;63501;55.570;37.488;2023-07-31T14:19:06;3.25;;;1.50;;
74935;SDS011;63501;55.570;37.488;2023-07-31T14:21:34;2.40;;;1.73;;
74935;SDS011;63501;55.570;37.488;2023-07-31T14:24:02;1.85;;;1.40;;
74935;SDS011;63501;55.570;37.488;2023-07-31T14:26:30;3.08;;;2.10;;
74935;SDS011;63501;55.570;37.488;2023-07-31T14:28:57;3.10;;;1.77;;
74935;SDS011;63501;55.570;37.488;2023-07-31T14:31:24;2.90;;;1.83;;
74935;SDS011;63501;55.570;37.488;2023-07-31T14:33:51;1.55;;;1.42;;
74935;SDS011;63501;55.570;37.488;2023-07-31T14:36:19;2.25;;;1.50;;
74935;SDS011;63501;55.570;37.488;2023-07-31T14:38:46;2.97;;;2.67;;
74935;SDS011;63501;55.570;37.488;2023-07-31T14:41:14;4.43;;;2.47;;
74935;SDS011;63501;55.570;37.488;2023-07-31T14:43:42;6.05;;;3.38;;
74935;SDS011;63501;55.570;37.488;2023-07-31T14:46:09;5.90;;;4.38;;
74935;SDS011;63501;55.570;37.488;2023-07-31T14:48:36;3.95;;;2.05;;
74935;SDS011;63501;55.570;37.488;2023-07-31T14:53:30;3.45;;;1.60;;
74935;SDS011;63501;55.570;37.488;2023-07-31T14:58:25;2.10;;;1.92;;
74935;SDS011;63501;55.570;37.488;2023-07-31T15:00:52;1.92;;;1.77;;
74935;SDS011;63501;55.570;37.488;2023-07-31T15:03:19;2.08;;;1.80;;